Time;durP1;ratioP1;P1;durP2;ratioP2;P2;SDS_P1;SDS_P2;PMS_P1;PMS_P2;Temp;Humidity;BMP_temperature;BMP_pressure;BME280_temperature;BME280_humidity;BME280_pressure;Samples;Min_cycle;Max_cycle;Signal;HPM_P1;HPM_P2
2022/09/30 00:00:59;;;;;;;5.95;2.40;;;;;;;;;;6160513;23;20022;-80
2022/09/30 00:03:27;;;;;;;5.05;2.53;;;;;;;;;;6161102;23;20105;-79
2022/09/30 00:05:57;;;;;;;7.05;2.30;;;;;;;;;;6154525;23;21267;-80
2022/09/30 00:08:33;;;;;;;4.35;2.38;;;;;;;;;;6190317;23;20108;-79
2022/09/30 00:10:59;;;;;;;6.55;2.58;;;;;;;;;;6191209;23;20018;-79
2022/09/30 00:13:26;;;;;;;11.35;2.70;;;;;;;;;;6190069;23;20117;-79
2022/09/30 00:15:52;;;;;;;4.47;2.13;;;;;;;;;;6189739;23;20033;-79
2022/09/30 00:18:18;;;;;;;3.92;2.00;;;;;;;;;;6189701;23;20029;-78
2022/09/30 00:20:44;;;;;;;4.90;2.22;;;;;;;;;;6187305;23;20367;-78
2022/09/30 00:23:18;;;;;;;4.60;2.13;;;;;;;;;;6189413;23;20037;-80
2022/09/30 00:25:45;;;;;;;5.32;2.17;;;;;;;;;;6186306;23;20057;-82
2022/09/30 00:28:11;;;;;;;5.70;2.25;;;;;;;;;;6185467;23;20363;-79
2022/09/30 00:30:37;;;;;;;6.93;2.47;;;;;;;;;;6184420;23;20030;-78
2022/09/30 00:33:03;;;;;;;4.95;2.10;;;;;;;;;;6187462;23;20050;-80
2022/09/30 00:35:30;;;;;;;5.18;2.17;;;;;;;;;;6188732;23;20027;-79
2022/09/30 00:37:56;;;;;;;4.80;2.25;;;;;;;;;;6188842;23;20038;-79
2022/09/30 00:40:22;;;;;;;4.97;2.33;;;;;;;;;;6187290;23;20104;-79
2022/09/30 00:42:49;;;;;;;4.63;2.20;;;;;;;;;;6186551;23;20030;-79
2022/09/30 00:45:18;;;;;;;5.63;2.10;;;;;;;;;;6185611;23;20029;-80
2022/09/30 00:47:47;;;;;;;6.22;2.33;;;;;;;;;;6187970;23;20431;-80
2022/09/30 00:50:19;;;;;;;5.25;2.40;;;;;;;;;;6186392;23;20098;-79
2022/09/30 00:52:49;;;;;;;5.00;2.03;;;;;;;;;;6187828;23;20035;-80
2022/09/30 00:55:28;;;;;;;5.57;2.90;;;;;;;;;;6188395;23;20903;-80
2022/09/30 00:57:54;;;;;;;4.47;2.00;;;;;;;;;;6187397;23;20701;-79
2022/09/30 01:00:21;;;;;;;5.10;2.30;;;;;;;;;;6184514;23;20025;-79
2022/09/30 01:02:48;;;;;;;4.60;2.00;;;;;;;;;;6186951;23;20466;-81
2022/09/30 01:05:14;;;;;;;4.45;2.10;;;;;;;;;;6181561;23;20052;-79
2022/09/30 01:07:41;;;;;;;4.70;2.10;;;;;;;;;;6132613;23;20033;-81
2022/09/30 01:10:07;;;;;;;6.97;2.38;;;;;;;;;;6131995;23;20033;-79
2022/09/30 01:12:33;;;;;;;5.28;2.22;;;;;;;;;;6133900;23;20030;-80
2022/09/30 01:15:00;;;;;;;4.57;2.03;;;;;;;;;;6129505;23;20026;-79
2022/09/30 01:17:30;;;;;;;4.95;2.35;;;;;;;;;;6131782;23;20033;-80
2022/09/30 01:20:06;;;;;;;5.07;2.25;;;;;;;;;;6129138;23;20037;-80
2022/09/30 01:22:39;;;;;;;4.60;2.45;;;;;;;;;;6156590;23;20036;-80
2022/09/30 01:25:07;;;;;;;4.65;2.25;;;;;;;;;;6156774;23;20473;-80
2022/09/30 01:27:37;;;;;;;4.50;1.92;;;;;;;;;;6132186;23;20081;-80
2022/09/30 01:30:19;;;;;;;5.03;2.08;;;;;;;;;;6157954;23;20018;-80
2022/09/30 01:33:02;;;;;;;5.93;2.00;;;;;;;;;;6130672;23;20022;-79
2022/09/30 01:35:38;;;;;;;4.32;2.10;;;;;;;;;;6157537;23;20361;-80
2022/09/30 01:38:04;;;;;;;4.03;2.05;;;;;;;;;;6131471;23;20026;-80
2022/09/30 01:40:46;;;;;;;5.70;2.20;;;;;;;;;;6155901;23;20030;-80
2022/09/30 01:43:20;;;;;;;4.20;2.28;;;;;;;;;;6131221;23;20026;-80
2022/09/30 01:45:55;;;;;;;4.57;2.22;;;;;;;;;;6156739;23;20034;-80
2022/09/30 01:48:25;;;;;;;6.18;2.90;;;;;;;;;;6129974;23;20026;-80
2022/09/30 01:50:54;;;;;;;4.97;2.75;;;;;;;;;;6129453;23;20021;-81
2022/09/30 01:53:24;;;;;;;7.40;2.88;;;;;;;;;;6157091;23;20490;-80
2022/09/30 01:55:58;;;;;;;5.07;2.65;;;;;;;;;;6156254;23;20060;-80
2022/09/30 01:58:54;;;;;;;6.75;3.30;;;;;;;;;;6130734;23;20585;-80
2022/09/30 02:01:24;;;;;;;5.78;2.97;;;;;;;;;;6051292;23;20039;-80
2022/09/30 02:03:55;;;;;;;5.60;3.00;;;;;;;;;;6132136;23;20026;-81
2022/09/30 02:06:27;;;;;;;6.55;3.08;;;;;;;;;;6161721;23;20084;-80
2022/09/30 02:08:57;;;;;;;5.65;2.78;;;;;;;;;;6183653;23;20088;-80
2022/09/30 02:11:26;;;;;;;5.70;3.25;;;;;;;;;;6186308;23;20072;-80
2022/09/30 02:14:04;;;;;;;6.32;2.97;;;;;;;;;;6187074;23;20052;-80
2022/09/30 02:16:38;;;;;;;5.97;2.85;;;;;;;;;;6186714;23;20025;-79
2022/09/30 02:19:17;;;;;;;6.35;2.78;;;;;;;;;;6185869;23;20509;-80
2022/09/30 02:21:46;;;;;;;7.05;2.55;;;;;;;;;;6185452;23;20014;-80
2022/09/30 02:24:15;;;;;;;5.18;2.40;;;;;;;;;;6187185;23;20025;-80
2022/09/30 02:26:42;;;;;;;6.15;2.80;;;;;;;;;;6186809;23;20033;-81
2022/09/30 02:29:14;;;;;;;6.70;2.67;;;;;;;;;;6185962;23;20449;-80
2022/09/30 02:31:42;;;;;;;5.40;2.83;;;;;;;;;;6182950;23;20387;-79
2022/09/30 02:34:12;;;;;;;6.45;2.67;;;;;;;;;;6186252;23;20056;-80
2022/09/30 02:36:41;;;;;;;5.77;2.30;;;;;;;;;;6187412;23;20036;-80
2022/09/30 02:39:19;;;;;;;5.82;2.50;;;;;;;;;;6185672;23;20030;-80
2022/09/30 02:41:50;;;;;;;4.93;2.40;;;;;;;;;;6186249;23;20033;-80
2022/09/30 02:44:18;;;;;;;6.60;3.28;;;;;;;;;;6185662;23;20029;-80
2022/09/30 02:46:47;;;;;;;6.72;2.53;;;;;;;;;;6186750;23;20025;-80
2022/09/30 02:49:30;;;;;;;7.25;2.42;;;;;;;;;;6185344;23;20029;-80
2022/09/30 02:52:07;;;;;;;4.80;2.20;;;;;;;;;;6186960;23;20025;-80
2022/09/30 02:54:35;;;;;;;4.20;1.75;;;;;;;;;;6184417;23;20040;-80
2022/09/30 02:57:05;;;;;;;4.60;2.10;;;;;;;;;;6185165;23;20026;-79
2022/09/30 02:59:32;;;;;;;6.72;1.98;;;;;;;;;;6185483;23;20734;-80
2022/09/30 03:01:58;;;;;;;3.92;1.95;;;;;;;;;;6185704;23;20018;-80
2022/09/30 03:04:27;;;;;;;5.22;2.40;;;;;;;;;;6186183;23;20900;-80
2022/09/30 03:06:53;;;;;;;5.43;2.30;;;;;;;;;;6161895;23;20030;-80
2022/09/30 03:09:24;;;;;;;7.80;2.70;;;;;;;;;;6130169;23;20034;-80
2022/09/30 03:11:53;;;;;;;5.07;2.30;;;;;;;;;;6157158;23;20121;-80
2022/09/30 03:14:21;;;;;;;6.75;2.63;;;;;;;;;;6157362;23;20041;-80
2022/09/30 03:17:02;;;;;;;6.90;2.55;;;;;;;;;;6157063;23;20340;-80
2022/09/30 03:19:32;;;;;;;6.45;2.50;;;;;;;;;;6129112;23;20026;-81
2022/09/30 03:22:18;;;;;;;5.25;2.30;;;;;;;;;;6129893;23;20041;-80
2022/09/30 03:24:50;;;;;;;5.68;2.70;;;;;;;;;;6156569;23;20073;-80
2022/09/30 03:27:19;;;;;;;8.98;3.35;;;;;;;;;;6130881;23;20022;-81
2022/09/30 03:29:54;;;;;;;6.03;2.97;;;;;;;;;;6129173;23;20034;-81
2022/09/30 03:32:24;;;;;;;5.68;2.95;;;;;;;;;;6130853;23;20030;-80
2022/09/30 03:35:08;;;;;;;5.70;2.95;;;;;;;;;;6156314;23;20564;-81
2022/09/30 03:37:45;;;;;;;6.75;4.10;;;;;;;;;;6131100;23;20022;-80
2022/09/30 03:40:35;;;;;;;9.25;3.10;;;;;;;;;;6130413;23;20033;-81
2022/09/30 03:43:14;;;;;;;8.18;3.15;;;;;;;;;;6118869;23;20037;-81
2022/09/30 03:45:45;;;;;;;7.05;3.35;;;;;;;;;;6130660;23;20021;-80
2022/09/30 03:48:12;;;;;;;9.32;3.88;;;;;;;;;;6156247;23;20022;-80
2022/09/30 03:50:40;;;;;;;6.47;3.40;;;;;;;;;;6130034;23;20026;-80
2022/09/30 03:53:11;;;;;;;6.32;3.60;;;;;;;;;;6130996;23;20026;-81
2022/09/30 03:55:46;;;;;;;5.95;3.10;;;;;;;;;;6129629;23;20475;-81
2022/09/30 03:58:13;;;;;;;6.35;3.10;;;;;;;;;;6130808;23;20018;-80
2022/09/30 04:00:44;;;;;;;5.90;2.88;;;;;;;;;;6157296;23;20026;-81
2022/09/30 04:03:10;;;;;;;5.78;2.90;;;;;;;;;;6130969;23;20033;-80
2022/09/30 04:05:37;;;;;;;6.97;2.90;;;;;;;;;;6155642;23;20026;-80
2022/09/30 04:08:03;;;;;;;5.50;2.80;;;;;;;;;;6155619;23;20026;-80
2022/09/30 04:10:29;;;;;;;6.03;3.15;;;;;;;;;;6131051;23;20041;-80
2022/09/30 04:12:56;;;;;;;6.32;3.00;;;;;;;;;;6157160;23;20034;-80
2022/09/30 04:15:22;;;;;;;5.63;2.58;;;;;;;;;;6155692;23;20022;-81
2022/09/30 04:17:49;;;;;;;5.13;2.55;;;;;;;;;;6155813;23;20041;-81
2022/09/30 04:20:15;;;;;;;5.10;2.80;;;;;;;;;;6128996;23;20030;-81
2022/09/30 04:22:41;;;;;;;5.35;2.75;;;;;;;;;;6129859;23;20770;-80
2022/09/30 04:25:08;;;;;;;6.43;3.10;;;;;;;;;;6128235;23;20018;-81
2022/09/30 04:27:34;;;;;;;9.60;3.10;;;;;;;;;;6157868;23;20060;-81
2022/09/30 04:30:00;;;;;;;6.38;3.20;;;;;;;;;;6158025;23;20833;-82
2022/09/30 04:32:27;;;;;;;7.03;3.50;;;;;;;;;;6157225;23;20014;-81
2022/09/30 04:34:54;;;;;;;8.65;4.90;;;;;;;;;;6156643;23;20396;-82
2022/09/30 04:37:20;;;;;;;7.85;4.55;;;;;;;;;;6130211;23;20034;-81
2022/09/30 04:39:46;;;;;;;8.90;5.43;;;;;;;;;;6157187;23;20037;-81
2022/09/30 04:42:12;;;;;;;9.48;4.53;;;;;;;;;;6131820;23;20029;-81
2022/09/30 04:44:39;;;;;;;8.45;4.70;;;;;;;;;;6128390;23;20032;-81
2022/09/30 04:47:05;;;;;;;15.60;4.85;;;;;;;;;;6157615;23;20029;-80
2022/09/30 04:49:31;;;;;;;7.70;3.38;;;;;;;;;;6156179;23;20037;-81
2022/09/30 04:51:58;;;;;;;6.30;3.35;;;;;;;;;;6157319;23;20034;-81
2022/09/30 04:54:24;;;;;;;7.75;3.40;;;;;;;;;;6131970;23;20030;-81
2022/09/30 04:56:50;;;;;;;5.43;2.83;;;;;;;;;;6157688;23;20033;-81
2022/09/30 04:59:17;;;;;;;6.90;2.80;;;;;;;;;;6130563;23;20061;-81
2022/09/30 05:01:46;;;;;;;8.98;5.55;;;;;;;;;;6159000;23;20022;-80
2022/09/30 05:04:15;;;;;;;15.35;9.55;;;;;;;;;;6132437;23;20030;-79
2022/09/30 05:06:41;;;;;;;16.05;10.57;;;;;;;;;;6170155;23;20017;-80
2022/09/30 05:09:07;;;;;;;12.07;7.18;;;;;;;;;;6186596;23;20037;-80
2022/09/30 05:11:36;;;;;;;17.73;13.07;;;;;;;;;;6188103;23;20018;-79
2022/09/30 05:14:07;;;;;;;10.48;7.25;;;;;;;;;;6188550;23;20025;-79
2022/09/30 05:16:33;;;;;;;10.02;5.95;;;;;;;;;;6189147;23;20017;-80
2022/09/30 05:19:02;;;;;;;8.40;4.70;;;;;;;;;;6190459;23;20857;-80
2022/09/30 05:21:29;;;;;;;7.93;4.53;;;;;;;;;;6191438;23;20841;-80
2022/09/30 05:23:55;;;;;;;11.40;5.53;;;;;;;;;;6192517;23;20030;-80
2022/09/30 05:26:21;;;;;;;8.93;4.75;;;;;;;;;;6191384;23;20021;-80
2022/09/30 05:28:48;;;;;;;9.45;4.25;;;;;;;;;;6188817;23;20029;-80
2022/09/30 05:31:14;;;;;;;7.95;4.13;;;;;;;;;;6187784;23;20021;-80
2022/09/30 05:33:40;;;;;;;9.18;4.60;;;;;;;;;;6187333;23;20516;-79
2022/09/30 05:36:08;;;;;;;8.70;4.30;;;;;;;;;;6188597;23;20855;-80
2022/09/30 05:38:34;;;;;;;11.90;5.00;;;;;;;;;;6189210;23;21011;-80
2022/09/30 05:41:10;;;;;;;8.57;4.82;;;;;;;;;;6191530;23;20036;-80
2022/09/30 05:43:37;;;;;;;11.00;5.53;;;;;;;;;;6189532;23;20035;-80
2022/09/30 05:46:04;;;;;;;10.95;5.65;;;;;;;;;;6190299;23;20051;-82
2022/09/30 05:48:30;;;;;;;16.75;5.90;;;;;;;;;;6191173;23;20171;-80
2022/09/30 05:50:58;;;;;;;12.80;5.93;;;;;;;;;;6191384;23;20030;-80
2022/09/30 05:53:24;;;;;;;12.20;5.75;;;;;;;;;;6191092;23;20032;-80
2022/09/30 05:55:51;;;;;;;23.45;6.63;;;;;;;;;;6190489;23;20937;-80
2022/09/30 05:58:18;;;;;;;13.10;6.90;;;;;;;;;;6188838;23;20017;-80
2022/09/30 06:00:45;;;;;;;17.65;8.82;;;;;;;;;;6191345;23;20029;-79
2022/09/30 06:03:12;;;;;;;21.13;9.15;;;;;;;;;;6190497;23;20833;-80
2022/09/30 06:05:38;;;;;;;24.00;9.93;;;;;;;;;;6182152;23;20029;-80
2022/09/30 06:08:08;;;;;;;17.08;8.35;;;;;;;;;;6161886;23;20026;-80
2022/09/30 06:10:35;;;;;;;17.20;8.32;;;;;;;;;;6136779;23;20036;-80
2022/09/30 06:13:02;;;;;;;13.77;7.63;;;;;;;;;;6137096;23;20494;-80
2022/09/30 06:15:28;;;;;;;16.55;8.35;;;;;;;;;;6161160;23;20037;-80
2022/09/30 06:17:55;;;;;;;14.18;7.60;;;;;;;;;;6135484;23;20036;-79
2022/09/30 06:20:21;;;;;;;18.42;7.57;;;;;;;;;;6136231;23;20032;-80
2022/09/30 06:22:47;;;;;;;10.85;6.30;;;;;;;;;;6160660;23;20029;-80
2022/09/30 06:25:14;;;;;;;13.05;6.80;;;;;;;;;;6134208;23;20025;-80
2022/09/30 06:27:43;;;;;;;11.38;6.82;;;;;;;;;;6136802;23;20030;-80
2022/09/30 06:30:09;;;;;;;16.90;6.57;;;;;;;;;;6134578;23;20628;-81
2022/09/30 06:32:35;;;;;;;11.98;6.38;;;;;;;;;;6131913;23;20049;-79
2022/09/30 06:35:03;;;;;;;12.98;7.25;;;;;;;;;;6130971;23;20036;-80
2022/09/30 06:37:29;;;;;;;13.68;7.57;;;;;;;;;;6130681;23;20459;-79
2022/09/30 06:39:55;;;;;;;16.58;7.20;;;;;;;;;;6131580;23;20051;-80
2022/09/30 06:42:23;;;;;;;17.00;8.07;;;;;;;;;;6131553;23;20030;-81
2022/09/30 06:44:50;;;;;;;14.70;7.78;;;;;;;;;;6156167;23;20030;-80
2022/09/30 06:47:19;;;;;;;16.50;7.88;;;;;;;;;;6132169;23;20423;-80
2022/09/30 06:49:53;;;;;;;12.98;7.25;;;;;;;;;;6132155;23;20117;-80
2022/09/30 06:52:19;;;;;;;14.43;7.25;;;;;;;;;;6132052;23;20030;-80
2022/09/30 06:54:46;;;;;;;14.98;7.50;;;;;;;;;;6130789;23;20487;-80
2022/09/30 06:57:12;;;;;;;14.43;7.05;;;;;;;;;;6155657;23;20068;-80
2022/09/30 06:59:38;;;;;;;13.35;8.07;;;;;;;;;;6155610;23;20443;-80
2022/09/30 07:02:05;;;;;;;17.25;8.75;;;;;;;;;;6130011;23;20034;-80
2022/09/30 07:04:31;;;;;;;19.80;9.68;;;;;;;;;;6131759;23;20037;-80
2022/09/30 07:06:57;;;;;;;31.27;17.25;;;;;;;;;;6177035;23;20030;-80
2022/09/30 07:09:24;;;;;;;26.80;15.57;;;;;;;;;;6187419;23;20486;-80
2022/09/30 07:11:50;;;;;;;24.17;13.43;;;;;;;;;;6186476;23;20029;-80
2022/09/30 07:14:17;;;;;;;36.67;17.23;;;;;;;;;;6185030;23;20040;-81
2022/09/30 07:16:44;;;;;;;25.65;14.70;;;;;;;;;;6185825;23;20549;-80
2022/09/30 07:19:10;;;;;;;29.45;15.77;;;;;;;;;;6184818;23;20025;-80
2022/09/30 07:21:37;;;;;;;32.00;16.40;;;;;;;;;;6185101;23;20029;-80
2022/09/30 07:24:04;;;;;;;48.53;22.15;;;;;;;;;;6185805;23;20032;-80
2022/09/30 07:26:36;;;;;;;41.60;20.55;;;;;;;;;;6187193;23;20560;-81
2022/09/30 07:29:12;;;;;;;51.08;23.48;;;;;;;;;;6186860;23;20033;-80
2022/09/30 07:31:39;;;;;;;62.00;28.30;;;;;;;;;;6184398;23;20025;-81
2022/09/30 07:34:07;;;;;;;43.28;22.17;;;;;;;;;;6185756;23;20028;-80
2022/09/30 07:36:34;;;;;;;66.60;29.80;;;;;;;;;;6185222;23;20025;-80
2022/09/30 07:39:04;;;;;;;61.95;29.10;;;;;;;;;;6187100;23;20149;-80
2022/09/30 07:41:30;;;;;;;52.25;26.13;;;;;;;;;;6184617;23;20084;-80
2022/09/30 07:43:58;;;;;;;45.72;23.27;;;;;;;;;;6185980;23;20427;-81
2022/09/30 07:46:26;;;;;;;70.00;32.47;;;;;;;;;;6185065;23;20029;-80
2022/09/30 07:48:55;;;;;;;75.45;35.35;;;;;;;;;;6187166;23;20490;-80
2022/09/30 07:51:23;;;;;;;69.75;34.15;;;;;;;;;;6185471;23;20029;-80
2022/09/30 07:53:50;;;;;;;63.45;33.80;;;;;;;;;;6184905;23;20509;-80
2022/09/30 07:56:17;;;;;;;57.05;32.22;;;;;;;;;;6185147;23;20025;-80
2022/09/30 07:58:44;;;;;;;54.03;30.45;;;;;;;;;;6187536;23;20029;-80
2022/09/30 08:01:11;;;;;;;45.80;26.17;;;;;;;;;;6183988;23;20840;-80
2022/09/30 08:03:38;;;;;;;49.17;25.23;;;;;;;;;;6184721;23;20037;-81
2022/09/30 08:06:06;;;;;;;36.60;21.38;;;;;;;;;;6183438;23;20033;-81
2022/09/30 08:08:32;;;;;;;31.85;19.13;;;;;;;;;;6183297;23;20469;-81
2022/09/30 08:10:59;;;;;;;29.85;19.13;;;;;;;;;;6185489;23;20805;-81
2022/09/30 08:13:25;;;;;;;28.92;18.27;;;;;;;;;;6183751;23;20025;-81
2022/09/30 08:15:52;;;;;;;22.23;14.98;;;;;;;;;;6186404;23;20030;-80
2022/09/30 08:18:18;;;;;;;27.42;16.45;;;;;;;;;;6186374;23;20896;-81
2022/09/30 08:20:44;;;;;;;27.08;17.20;;;;;;;;;;6187587;23;20014;-80
2022/09/30 08:23:11;;;;;;;22.58;15.48;;;;;;;;;;6185992;23;20029;-81
2022/09/30 08:25:37;;;;;;;24.90;16.08;;;;;;;;;;6186016;23;20017;-80
2022/09/30 08:28:03;;;;;;;24.33;16.10;;;;;;;;;;6188458;23;20056;-81
2022/09/30 08:30:30;;;;;;;19.25;13.27;;;;;;;;;;6184910;23;20035;-80
2022/09/30 08:32:57;;;;;;;17.98;11.82;;;;;;;;;;6187077;23;20033;-78
2022/09/30 08:35:23;;;;;;;17.10;11.50;;;;;;;;;;6186623;23;20033;-79
2022/09/30 08:37:50;;;;;;;18.10;11.05;;;;;;;;;;6187570;23;20029;-79
2022/09/30 08:40:19;;;;;;;16.48;11.48;;;;;;;;;;6188085;23;20029;-79
2022/09/30 08:43:10;;;;;;;15.07;10.90;;;;;;;;;;6185081;23;20549;-78
2022/09/30 08:46:00;;;;;;;17.75;11.38;;;;;;;;;;6182454;23;20017;-78
2022/09/30 08:48:32;;;;;;;17.52;11.15;;;;;;;;;;6170859;23;20021;-80
2022/09/30 08:51:03;;;;;;;15.98;11.05;;;;;;;;;;6188577;23;20029;-81
2022/09/30 08:53:32;;;;;;;15.45;10.43;;;;;;;;;;6187738;23;20017;-79
2022/09/30 08:56:01;;;;;;;17.83;11.20;;;;;;;;;;6186730;23;20033;-79
2022/09/30 08:58:32;;;;;;;17.25;12.05;;;;;;;;;;6186680;23;20017;-78
2022/09/30 09:01:34;;;;;;;17.75;12.70;;;;;;;;;;6184604;23;20030;-80
2022/09/30 09:04:01;;;;;;;19.08;12.98;;;;;;;;;;6066752;23;20044;-79
2022/09/30 09:06:28;;;;;;;20.63;12.10;;;;;;;;;;6156423;23;20025;-81
2022/09/30 09:09:06;;;;;;;18.50;12.50;;;;;;;;;;6184702;23;20690;-80
2022/09/30 09:11:47;;;;;;;19.50;12.45;;;;;;;;;;6186130;23;20088;-79
2022/09/30 09:14:28;;;;;;;17.50;12.80;;;;;;;;;;6187276;23;20036;-79
2022/09/30 09:17:05;;;;;;;18.02;11.52;;;;;;;;;;6189148;23;20034;-81
2022/09/30 09:19:36;;;;;;;16.55;11.98;;;;;;;;;;6184717;23;20093;-79
2022/09/30 09:22:02;;;;;;;17.85;12.15;;;;;;;;;;6187492;23;20109;-79
2022/09/30 09:24:35;;;;;;;14.38;10.77;;;;;;;;;;6187288;23;20380;-79
2022/09/30 09:27:12;;;;;;;16.42;10.82;;;;;;;;;;6185423;23;20084;-80
2022/09/30 09:29:57;;;;;;;15.63;10.50;;;;;;;;;;6186297;23;20475;-80
2022/09/30 09:32:24;;;;;;;18.05;10.77;;;;;;;;;;6185567;23;21563;-80
2022/09/30 09:34:54;;;;;;;14.85;10.38;;;;;;;;;;6185937;23;20491;-79
2022/09/30 09:40:22;;;;;;;13.95;9.45;;;;;;;;;;6186158;23;20065;-79
2022/09/30 09:42:48;;;;;;;15.07;9.25;;;;;;;;;;6184695;23;20158;-80
2022/09/30 09:45:21;;;;;;;13.73;10.07;;;;;;;;;;6186299;23;20029;-79
2022/09/30 09:47:55;;;;;;;12.82;9.40;;;;;;;;;;6186102;23;20033;-79
2022/09/30 09:50:37;;;;;;;15.50;10.73;;;;;;;;;;6184257;23;20033;-80
2022/09/30 09:53:12;;;;;;;14.88;9.68;;;;;;;;;;6185851;23;20026;-79
2022/09/30 09:55:38;;;;;;;12.38;9.18;;;;;;;;;;6185156;23;20026;-80
2022/09/30 09:58:06;;;;;;;12.15;9.15;;;;;;;;;;6185314;23;20391;-80
2022/09/30 10:03:20;;;;;;;11.38;8.10;;;;;;;;;;6188091;23;20025;-79
2022/09/30 10:06:09;;;;;;;12.63;7.15;;;;;;;;;;6174323;23;20525;-79
2022/09/30 10:08:37;;;;;;;11.82;7.25;;;;;;;;;;6157612;23;20022;-80
2022/09/30 10:11:05;;;;;;;11.70;7.68;;;;;;;;;;6131457;23;20089;-80
2022/09/30 10:13:39;;;;;;;12.13;6.95;;;;;;;;;;6156137;23;20105;-81
2022/09/30 10:16:21;;;;;;;10.05;7.20;;;;;;;;;;6130799;23;20030;-80
2022/09/30 10:18:47;;;;;;;9.63;6.90;;;;;;;;;;6157478;23;20034;-81
2022/09/30 10:21:20;;;;;;;10.13;7.20;;;;;;;;;;6156011;23;20042;-80
2022/09/30 10:23:47;;;;;;;12.00;7.30;;;;;;;;;;6131756;23;20481;-80
2022/09/30 10:26:14;;;;;;;10.07;7.20;;;;;;;;;;6156144;23;20084;-79
2022/09/30 10:28:55;;;;;;;10.30;7.00;;;;;;;;;;6131740;23;20083;-81
2022/09/30 10:31:22;;;;;;;9.75;6.80;;;;;;;;;;6159529;23;20033;-80
2022/09/30 10:33:53;;;;;;;11.32;7.13;;;;;;;;;;6132286;23;20057;-79
2022/09/30 10:36:20;;;;;;;12.00;6.55;;;;;;;;;;6129376;23;20037;-79
2022/09/30 10:39:05;;;;;;;9.90;5.82;;;;;;;;;;6130224;23;20034;-79
2022/09/30 10:41:34;;;;;;;8.95;5.35;;;;;;;;;;6131068;23;20026;-82
2022/09/30 10:44:02;;;;;;;10.10;5.93;;;;;;;;;;6130926;23;20030;-80
2022/09/30 10:46:37;;;;;;;9.93;6.88;;;;;;;;;;6156405;23;20774;-80
2022/09/30 10:49:08;;;;;;;9.30;5.90;;;;;;;;;;6156169;23;20854;-80
2022/09/30 10:51:35;;;;;;;9.93;6.63;;;;;;;;;;6156416;23;20888;-80
2022/09/30 10:54:03;;;;;;;8.45;5.82;;;;;;;;;;6129943;23;20034;-80
2022/09/30 10:56:40;;;;;;;8.30;5.15;;;;;;;;;;6156942;23;20029;-80
2022/09/30 10:59:15;;;;;;;7.00;4.40;;;;;;;;;;6156559;23;20034;-81
2022/09/30 11:01:45;;;;;;;9.10;4.75;;;;;;;;;;6130987;23;20026;-80
2022/09/30 11:04:30;;;;;;;6.53;4.07;;;;;;;;;;6131180;23;20025;-79
2022/09/30 11:07:08;;;;;;;6.28;3.17;;;;;;;;;;6175240;23;20037;-78
2022/09/30 11:09:38;;;;;;;4.78;2.67;;;;;;;;;;6185166;23;20073;-78
2022/09/30 11:12:09;;;;;;;6.18;3.17;;;;;;;;;;6185632;23;20490;-79
2022/09/30 11:14:42;;;;;;;5.55;3.10;;;;;;;;;;6187266;23;20143;-79
2022/09/30 11:17:15;;;;;;;7.00;3.63;;;;;;;;;;6185604;23;20026;-80
2022/09/30 11:19:51;;;;;;;6.00;3.20;;;;;;;;;;6185911;23;20068;-82
2022/09/30 11:22:18;;;;;;;6.35;3.35;;;;;;;;;;6188906;23;20030;-80
2022/09/30 11:24:45;;;;;;;5.40;2.67;;;;;;;;;;6186159;23;20018;-81
2022/09/30 11:27:14;;;;;;;4.45;2.38;;;;;;;;;;6189294;23;20427;-79
2022/09/30 11:29:48;;;;;;;5.82;2.08;;;;;;;;;;6188969;23;20037;-80
2022/09/30 11:32:33;;;;;;;5.20;2.67;;;;;;;;;;6188621;23;20036;-82
2022/09/30 11:35:05;;;;;;;5.43;2.60;;;;;;;;;;6187524;23;20013;-82
2022/09/30 11:37:42;;;;;;;4.50;1.60;;;;;;;;;;6186245;23;20024;-79
2022/09/30 11:40:12;;;;;;;4.63;1.85;;;;;;;;;;6189014;23;20080;-80
2022/09/30 11:42:43;;;;;;;4.88;2.35;;;;;;;;;;6186422;23;20037;-79
2022/09/30 11:45:29;;;;;;;4.72;1.95;;;;;;;;;;6187329;23;20048;-79
2022/09/30 11:48:03;;;;;;;3.75;1.52;;;;;;;;;;6187187;23;20068;-80
2022/09/30 11:50:40;;;;;;;3.40;1.50;;;;;;;;;;6187445;23;20092;-81
2022/09/30 11:53:06;;;;;;;4.65;2.00;;;;;;;;;;6187480;23;20734;-80
2022/09/30 11:55:42;;;;;;;3.90;2.05;;;;;;;;;;6188332;23;20033;-80
2022/09/30 11:58:10;;;;;;;4.78;1.67;;;;;;;;;;6188574;23;20026;-78
2022/09/30 12:01:05;;;;;;;4.78;1.70;;;;;;;;;;6185247;23;20048;-81
2022/09/30 12:03:37;;;;;;;5.25;2.00;;;;;;;;;;6187237;23;20030;-80
2022/09/30 12:06:17;;;;;;;3.95;1.73;;;;;;;;;;6173911;23;20487;-79
2022/09/30 12:08:48;;;;;;;3.92;1.83;;;;;;;;;;6157486;23;20041;-78
2022/09/30 12:11:44;;;;;;;4.28;1.80;;;;;;;;;;6157685;23;20029;-79
2022/09/30 12:14:30;;;;;;;4.20;2.30;;;;;;;;;;6112635;23;20026;-81
2022/09/30 12:16:59;;;;;;;3.45;1.90;;;;;;;;;;6136910;23;20029;-80
2022/09/30 12:19:29;;;;;;;6.72;2.08;;;;;;;;;;6157250;23;20797;-80
2022/09/30 12:21:59;;;;;;;5.97;2.30;;;;;;;;;;6132106;23;20076;-79
2022/09/30 12:24:44;;;;;;;4.20;2.70;;;;;;;;;;6158568;23;20034;-80
2022/09/30 12:27:15;;;;;;;4.53;2.50;;;;;;;;;;6158773;23;20033;-79
2022/09/30 12:32:50;;;;;;;4.53;2.25;;;;;;;;;;6158237;23;20037;-80
2022/09/30 12:35:19;;;;;;;4.15;2.40;;;;;;;;;;6131673;23;20017;-80
2022/09/30 12:37:55;;;;;;;4.15;2.22;;;;;;;;;;6157864;23;20029;-80
2022/09/30 12:40:41;;;;;;;8.65;2.70;;;;;;;;;;6132335;23;20037;-79
2022/09/30 12:43:29;;;;;;;4.13;2.33;;;;;;;;;;6158445;23;20113;-80
2022/09/30 12:45:58;;;;;;;4.25;2.63;;;;;;;;;;6131692;23;20061;-80
2022/09/30 12:48:37;;;;;;;7.07;2.47;;;;;;;;;;6158166;23;20109;-80
2022/09/30 12:51:08;;;;;;;5.78;2.50;;;;;;;;;;6157057;23;20029;-80
2022/09/30 12:53:36;;;;;;;4.97;2.58;;;;;;;;;;6157962;23;20536;-80
2022/09/30 12:56:04;;;;;;;4.47;2.45;;;;;;;;;;6133423;23;20022;-83
2022/09/30 12:58:32;;;;;;;5.57;2.45;;;;;;;;;;6129284;23;20368;-82
2022/09/30 13:01:00;;;;;;;4.20;2.70;;;;;;;;;;6127593;23;20079;-81
2022/09/30 13:03:27;;;;;;;4.50;3.05;;;;;;;;;;6130705;23;20100;-84
2022/09/30 13:05:55;;;;;;;7.35;3.05;;;;;;;;;;6154785;23;20549;-79
2022/09/30 13:08:24;;;;;;;5.13;3.08;;;;;;;;;;6127963;23;20026;-80
2022/09/30 13:10:58;;;;;;;6.97;3.08;;;;;;;;;;6153776;23;20058;-80
2022/09/30 13:13:26;;;;;;;6.32;3.47;;;;;;;;;;6130445;23;20026;-81
2022/09/30 13:15:55;;;;;;;5.35;3.00;;;;;;;;;;6128317;23;20037;-80
2022/09/30 13:18:22;;;;;;;5.78;3.28;;;;;;;;;;6131366;23;20036;-78
2022/09/30 13:20:55;;;;;;;6.47;3.75;;;;;;;;;;6156675;23;20032;-79
2022/09/30 13:23:40;;;;;;;7.43;3.40;;;;;;;;;;6131212;23;20030;-79
2022/09/30 13:26:25;;;;;;;7.32;3.95;;;;;;;;;;6155467;23;20495;-79
2022/09/30 13:28:52;;;;;;;7.78;4.00;;;;;;;;;;6155984;23;20018;-78
2022/09/30 13:31:22;;;;;;;8.23;4.47;;;;;;;;;;6155796;23;20112;-78
2022/09/30 13:34:01;;;;;;;5.78;3.83;;;;;;;;;;6129147;23;20038;-79
2022/09/30 13:36:29;;;;;;;7.53;3.90;;;;;;;;;;6131037;23;20030;-79
2022/09/30 13:39:06;;;;;;;7.15;4.18;;;;;;;;;;6130801;23;20026;-78
2022/09/30 13:41:35;;;;;;;8.95;3.78;;;;;;;;;;6130520;23;20030;-78
2022/09/30 13:44:13;;;;;;;8.70;4.43;;;;;;;;;;6157456;23;20077;-79
2022/09/30 13:46:48;;;;;;;10.55;4.70;;;;;;;;;;6157084;23;20017;-78
2022/09/30 13:49:23;;;;;;;8.10;4.30;;;;;;;;;;6130211;23;20034;-78
2022/09/30 13:51:51;;;;;;;6.50;3.83;;;;;;;;;;6129664;23;20077;-78
2022/09/30 13:54:35;;;;;;;6.20;3.83;;;;;;;;;;6156658;23;20025;-79
2022/09/30 13:57:03;;;;;;;6.95;4.10;;;;;;;;;;6130815;23;20038;-78
2022/09/30 13:59:30;;;;;;;6.18;4.05;;;;;;;;;;6155940;23;20033;-78
2022/09/30 14:02:15;;;;;;;6.72;4.10;;;;;;;;;;6130365;23;20173;-79
2022/09/30 14:04:47;;;;;;;;;;;;;;;;;;6155346;23;20422;-79
2022/09/30 14:07:14;;;;;;;6.70;3.78;;;;;;;;;;6180534;23;47260;-79
2022/09/30 14:09:46;;;;;;;6.68;3.83;;;;;;;;;;6183514;23;20029;-80
2022/09/30 14:12:30;;;;;;;5.10;2.97;;;;;;;;;;6187421;23;20034;-79
2022/09/30 14:15:13;;;;;;;5.20;2.88;;;;;;;;;;6182590;23;20041;-80
2022/09/30 14:17:42;;;;;;;6.15;3.00;;;;;;;;;;6187913;23;20036;-80
2022/09/30 14:20:18;;;;;;;5.43;2.58;;;;;;;;;;6188281;23;20022;-79
2022/09/30 14:22:45;;;;;;;5.03;2.30;;;;;;;;;;6183119;23;20037;-79
2022/09/30 14:25:13;;;;;;;5.85;2.33;;;;;;;;;;6186565;23;20025;-79
2022/09/30 14:27:42;;;;;;;4.97;2.33;;;;;;;;;;6183588;23;20042;-79
2022/09/30 14:30:12;;;;;;;4.43;2.20;;;;;;;;;;6184167;23;20489;-79
2022/09/30 14:32:38;;;;;;;7.85;2.67;;;;;;;;;;6184767;23;20241;-79
2022/09/30 14:35:05;;;;;;;6.00;2.40;;;;;;;;;;6185822;23;20041;-79
2022/09/30 14:37:41;;;;;;;6.28;2.50;;;;;;;;;;6184981;23;20036;-79
2022/09/30 14:40:11;;;;;;;4.35;2.15;;;;;;;;;;6186576;23;20025;-79
2022/09/30 14:42:40;;;;;;;4.35;2.20;;;;;;;;;;6184383;23;21038;-79
2022/09/30 14:45:06;;;;;;;3.97;2.13;;;;;;;;;;6185437;23;20072;-79
2022/09/30 14:47:39;;;;;;;4.63;2.05;;;;;;;;;;6186063;23;20033;-79
2022/09/30 14:50:10;;;;;;;5.15;2.30;;;;;;;;;;6185249;23;20045;-79
2022/09/30 14:52:46;;;;;;;6.22;2.60;;;;;;;;;;6185066;23;20033;-80
2022/09/30 14:55:25;;;;;;;5.15;2.13;;;;;;;;;;6184402;23;20033;-80
2022/09/30 14:58:11;;;;;;;6.18;2.50;;;;;;;;;;6183859;23;20029;-79
2022/09/30 15:00:38;;;;;;;5.53;3.25;;;;;;;;;;6181942;23;20014;-80
2022/09/30 15:03:09;;;;;;;7.60;3.05;;;;;;;;;;6182595;23;20017;-77
2022/09/30 15:05:36;;;;;;;5.28;2.90;;;;;;;;;;6174443;23;20029;-75